McColl, South Carolina
Current Conditions -  °F | °C
As of 5:55 AM on Wednesday 22 Oct 2014 (Local Time) from KBBP Reporting Station
Clear Clear  
Wind Chill: 44°   Ceiling: Unl
Heat Index: 46°   Visibility: 10mi
Dew Point: 36°   Wind: 5mph
Humidity: 66%   Direction: 290°WNW
Pressure: 29.98"   Gusts: NA
Location:  34.67°N, 79.55°W
Report Text: KBBP 220955Z AUTO 29004KT 10SM CLR 08/02 A2998 RMK AO2
Loading
Personal Weather Stations






























Interactive Weather Map
Tropical Storm Tracking
New forecast layout! Learn more

10-Day Weather Forecast

Advertisements
Track Severe Weather on mobile